createdAt,value
2018-03-30T00:00:24.942Z,4.00
2018-03-30T00:01:24.960Z,4.00
2018-03-30T00:02:24.975Z,4.00
2018-03-30T00:03:25.062Z,4.00
2018-03-30T00:04:25.012Z,4.00
2018-03-30T00:05:25.078Z,4.00
2018-03-30T00:06:25.047Z,4.00
2018-03-30T00:07:25.059Z,4.00
2018-03-30T00:08:25.079Z,4.00
2018-03-30T00:09:25.106Z,4.00
2018-03-30T00:10:25.112Z,4.00
2018-03-30T00:11:25.181Z,4.00
2018-03-30T00:12:25.146Z,4.00
2018-03-30T00:13:25.169Z,4.00
2018-03-30T00:14:25.187Z,4.00
2018-03-30T00:15:25.193Z,4.00
2018-03-30T00:16:25.220Z,4.00
2018-03-30T00:17:25.282Z,4.00
2018-03-30T00:18:25.244Z,4.00
2018-03-30T00:19:25.273Z,4.00
2018-03-30T00:20:25.281Z,4.00
2018-03-30T00:21:25.304Z,4.00
2018-03-30T00:22:25.320Z,4.00
2018-03-30T00:23:25.328Z,4.00
2018-03-30T00:24:25.363Z,4.00
2018-03-30T00:25:25.363Z,4.00
2018-03-30T00:26:25.380Z,4.00
2018-03-30T00:27:25.400Z,4.00
2018-03-30T00:28:25.413Z,4.00
2018-03-30T00:29:25.482Z,4.00
2018-03-30T00:30:25.458Z,4.00
2018-03-30T00:31:25.468Z,4.00
2018-03-30T00:32:25.481Z,4.00
2018-03-30T00:33:25.536Z,4.00
2018-03-30T00:34:25.556Z,4.00
2018-03-30T00:35:25.552Z,4.00
2018-03-30T00:36:25.555Z,4.00
2018-03-30T00:37:25.564Z,4.00
2018-03-30T00:38:25.592Z,4.00
2018-03-30T00:39:25.604Z,4.00
2018-03-30T00:40:25.692Z,4.00
2018-03-30T00:41:25.633Z,4.00
2018-03-30T00:42:25.651Z,4.00
2018-03-30T00:43:25.667Z,4.00
2018-03-30T00:44:25.682Z,4.00
2018-03-30T00:45:25.702Z,4.00
2018-03-30T00:46:25.716Z,4.00
2018-03-30T00:47:25.785Z,4.00
2018-03-30T00:48:25.750Z,4.00
2018-03-30T00:49:25.767Z,4.00
2018-03-30T00:50:25.784Z,4.00
2018-03-30T00:51:25.802Z,4.00
2018-03-30T00:52:25.843Z,4.00
2018-03-30T00:53:25.843Z,4.00
2018-03-30T00:54:25.854Z,4.00
2018-03-30T00:55:25.866Z,4.00
2018-03-30T00:56:25.885Z,4.00
2018-03-30T00:57:25.900Z,4.00
2018-03-30T00:58:25.974Z,4.00
2018-03-30T00:59:25.936Z,4.00
2018-03-30T01:00:25.948Z,4.00
2018-03-30T01:01:25.974Z,4.00
2018-03-30T01:02:25.995Z,4.00
2018-03-30T01:03:26.004Z,4.00
2018-03-30T01:04:26.091Z,4.00
2018-03-30T01:05:26.037Z,4.00
2018-03-30T01:06:26.049Z,4.00
2018-03-30T01:07:26.068Z,4.00
2018-03-30T01:08:26.116Z,4.00
2018-03-30T01:09:26.110Z,4.00
2018-03-30T01:10:26.196Z,4.00
2018-03-30T01:11:26.136Z,4.00
2018-03-30T01:12:26.154Z,4.00
2018-03-30T01:13:26.175Z,4.00
2018-03-30T01:14:26.189Z,4.00
2018-03-30T01:15:26.199Z,4.00
2018-03-30T01:16:26.219Z,4.00
2018-03-30T01:17:26.286Z,4.00
2018-03-30T01:18:26.251Z,4.00
2018-03-30T01:19:26.272Z,4.00
2018-03-30T01:20:26.295Z,4.00
2018-03-30T01:21:26.307Z,4.00
2018-03-30T01:22:26.338Z,4.00
2018-03-30T01:23:26.391Z,4.00
2018-03-30T01:24:26.352Z,4.00
2018-03-30T01:25:26.381Z,4.00
2018-03-30T01:26:26.387Z,4.00
2018-03-30T01:27:26.413Z,4.00
2018-03-30T01:28:26.470Z,4.00
2018-03-30T01:29:26.483Z,4.00
2018-03-30T01:30:26.452Z,4.00
2018-03-30T01:31:26.479Z,4.00
2018-03-30T01:32:26.485Z,4.00
2018-03-30T01:33:26.511Z,4.00
2018-03-30T01:34:26.519Z,4.00
2018-03-30T01:35:26.536Z,4.00
2018-03-30T01:36:26.555Z,4.00
2018-03-30T01:37:26.568Z,4.00
2018-03-30T01:38:26.584Z,4.00
2018-03-30T01:39:26.609Z,4.00
2018-03-30T01:40:26.620Z,4.00
2018-03-30T01:41:26.647Z,4.00
2018-03-30T01:42:26.660Z,4.00
2018-03-30T01:43:26.679Z,4.00
2018-03-30T01:44:26.685Z,4.00
2018-03-30T01:45:26.700Z,4.00
2018-03-30T01:46:26.720Z,4.00
2018-03-30T01:47:26.787Z,4.00
2018-03-30T01:48:26.760Z,4.00
2018-03-30T01:49:26.766Z,4.00
2018-03-30T01:50:26.784Z,4.00
2018-03-30T01:51:26.802Z,4.00
2018-03-30T01:52:26.829Z,4.00
2018-03-30T01:53:26.886Z,4.00
2018-03-30T01:54:26.851Z,4.00
2018-03-30T01:55:26.872Z,4.00
2018-03-30T01:56:26.886Z,4.00
2018-03-30T01:57:26.912Z,4.00
2018-03-30T01:58:26.921Z,4.00
2018-03-30T01:59:26.984Z,4.00
2018-03-30T02:00:26.955Z,4.00
2018-03-30T02:01:26.969Z,4.00
2018-03-30T02:02:26.992Z,4.00
2018-03-30T02:03:27.001Z,4.00
2018-03-30T02:04:27.028Z,4.00
2018-03-30T02:05:27.033Z,4.00
2018-03-30T02:06:27.051Z,4.00
2018-03-30T02:07:27.066Z,4.00
2018-03-30T02:08:27.081Z,4.00
2018-03-30T02:09:27.097Z,4.00
2018-03-30T02:10:27.118Z,4.00
2018-03-30T02:11:27.133Z,4.00
2018-03-30T02:12:27.148Z,4.00
2018-03-30T02:13:27.165Z,4.00
2018-03-30T02:14:27.182Z,4.00
2018-03-30T02:15:27.197Z,4.00
2018-03-30T02:16:27.222Z,4.00
2018-03-30T02:17:27.312Z,4.00
2018-03-30T02:18:27.253Z,4.00
2018-03-30T02:19:27.263Z,4.00
2018-03-30T02:20:27.279Z,4.00
2018-03-30T02:21:27.296Z,4.00
2018-03-30T02:22:27.309Z,4.00
2018-03-30T02:23:27.457Z,4.00
2018-03-30T02:24:27.346Z,4.00
2018-03-30T02:25:27.366Z,4.00
2018-03-30T02:26:27.377Z,4.00
2018-03-30T02:27:27.394Z,4.00
2018-03-30T02:28:27.412Z,4.00
2018-03-30T02:29:27.493Z,4.00
2018-03-30T02:30:27.454Z,4.00
2018-03-30T02:31:27.460Z,4.00
2018-03-30T02:32:27.476Z,4.00
2018-03-30T02:33:27.506Z,4.00
2018-03-30T02:34:27.511Z,4.00
2018-03-30T02:35:27.587Z,4.00
2018-03-30T02:36:27.552Z,4.00
2018-03-30T02:37:27.560Z,4.00
2018-03-30T02:38:27.592Z,4.00
2018-03-30T02:39:27.595Z,4.00
2018-03-30T02:40:27.611Z,4.00
2018-03-30T02:41:27.637Z,4.00
2018-03-30T02:42:27.650Z,4.00
2018-03-30T02:43:27.661Z,4.00
2018-03-30T02:44:27.686Z,4.00
2018-03-30T02:45:27.699Z,4.00
2018-03-30T02:46:27.711Z,4.00
2018-03-30T02:47:27.776Z,4.00
2018-03-30T02:48:27.741Z,4.00
2018-03-30T02:49:27.756Z,4.00
2018-03-30T02:50:27.785Z,4.00
2018-03-30T02:51:27.806Z,4.00
2018-03-30T02:52:27.819Z,4.00
2018-03-30T02:53:27.830Z,4.00
2018-03-30T02:54:27.924Z,4.00
2018-03-30T02:55:27.868Z,4.00
2018-03-30T02:56:27.874Z,4.00
2018-03-30T02:57:27.891Z,4.00
2018-03-30T02:58:27.905Z,4.00
2018-03-30T02:59:27.931Z,4.00
2018-03-30T03:00:27.967Z,4.00
2018-03-30T03:01:27.957Z,4.00
2018-03-30T03:02:27.974Z,4.00
2018-03-30T03:03:27.992Z,4.00
2018-03-30T03:04:28.005Z,4.00
2018-03-30T03:06:35.280Z,4.00
2018-03-30T03:07:28.055Z,4.00
2018-03-30T03:08:28.070Z,4.00
2018-03-30T03:09:28.088Z,4.00
2018-03-30T03:10:28.103Z,4.00
2018-03-30T03:11:28.120Z,4.00
2018-03-30T03:12:31.357Z,4.00
2018-03-30T03:13:28.162Z,4.00
2018-03-30T03:14:28.179Z,4.00
2018-03-30T03:15:28.193Z,4.00
2018-03-30T03:16:28.211Z,4.00
2018-03-30T03:17:28.218Z,4.00
2018-03-30T03:18:32.300Z,4.00
2018-03-30T03:19:28.253Z,4.00
2018-03-30T03:20:28.265Z,4.00
2018-03-30T03:21:28.284Z,4.00
2018-03-30T03:22:28.298Z,4.00
2018-03-30T03:23:28.314Z,4.00
2018-03-30T03:24:32.299Z,4.00
2018-03-30T03:25:28.356Z,4.00
2018-03-30T03:26:28.370Z,4.00
2018-03-30T03:27:28.379Z,4.00
2018-03-30T03:28:28.398Z,4.00
2018-03-30T03:29:28.414Z,4.00
2018-03-30T03:30:31.637Z,4.00
2018-03-30T03:31:28.448Z,4.00
2018-03-30T03:32:28.464Z,4.00
2018-03-30T03:33:28.481Z,4.00
2018-03-30T03:34:28.505Z,4.00
2018-03-30T03:35:32.020Z,4.00
2018-03-30T03:36:28.596Z,4.00
2018-03-30T03:37:28.541Z,4.00
2018-03-30T03:38:28.561Z,4.00
2018-03-30T03:39:28.586Z,4.00
2018-03-30T03:40:28.600Z,4.00
2018-03-30T03:41:32.516Z,4.00
2018-03-30T03:42:28.623Z,4.00
2018-03-30T03:43:28.645Z,4.00
2018-03-30T03:44:28.658Z,4.00
2018-03-30T03:45:28.673Z,4.00
2018-03-30T03:46:28.687Z,4.00
2018-03-30T03:47:31.960Z,4.00
2018-03-30T03:48:28.721Z,4.00
2018-03-30T03:49:28.743Z,4.00
2018-03-30T03:50:28.764Z,4.00
2018-03-30T03:51:28.782Z,4.00
2018-03-30T03:52:32.143Z,4.00
2018-03-30T03:53:28.807Z,4.00
2018-03-30T03:54:28.820Z,4.00
2018-03-30T03:55:28.835Z,4.00
2018-03-30T03:56:28.861Z,4.00
2018-03-30T03:57:28.867Z,4.00
2018-03-30T03:58:32.192Z,4.00
2018-03-30T03:59:28.901Z,4.00
2018-03-30T04:00:28.931Z,4.00
2018-03-30T04:01:28.948Z,4.00
2018-03-30T04:02:28.950Z,4.00
2018-03-30T04:03:28.965Z,4.00
2018-03-30T04:04:32.388Z,4.00
2018-03-30T04:05:28.997Z,4.00
2018-03-30T04:06:29.017Z,4.00
2018-03-30T04:07:29.059Z,4.00
2018-03-30T04:08:29.050Z,4.00
2018-03-30T04:09:29.081Z,4.00
2018-03-30T04:10:32.538Z,4.00
2018-03-30T04:11:29.098Z,4.00
2018-03-30T04:12:29.117Z,4.00
2018-03-30T04:13:29.171Z,4.00
2018-03-30T04:14:29.147Z,4.00
2018-03-30T04:15:29.165Z,4.00
2018-03-30T04:16:32.589Z,4.00
2018-03-30T04:17:29.198Z,4.00
2018-03-30T04:18:29.223Z,4.00
2018-03-30T04:19:29.229Z,4.00
2018-03-30T04:20:29.248Z,4.00
2018-03-30T04:21:29.277Z,4.00
2018-03-30T04:22:32.590Z,4.00
2018-03-30T04:23:29.300Z,4.00
2018-03-30T04:24:29.322Z,4.00
2018-03-30T04:25:29.339Z,4.00
2018-03-30T04:26:29.345Z,4.00
2018-03-30T04:27:29.372Z,4.00
2018-03-30T04:28:32.636Z,4.00
2018-03-30T04:29:29.401Z,4.00
2018-03-30T04:30:29.418Z,4.00
2018-03-30T04:31:29.430Z,4.00
2018-03-30T04:32:29.532Z,4.00
2018-03-30T04:33:29.457Z,4.00
2018-03-30T04:34:32.730Z,4.00
2018-03-30T04:35:29.494Z,4.00
2018-03-30T04:36:29.523Z,4.00
2018-03-30T04:37:29.534Z,4.00
2018-03-30T04:38:29.541Z,4.00
2018-03-30T04:39:29.567Z,4.00
2018-03-30T04:40:32.746Z,4.00
2018-03-30T04:41:29.593Z,4.00
2018-03-30T04:42:29.605Z,4.00
2018-03-30T04:43:29.624Z,4.00
2018-03-30T04:44:29.701Z,4.00
2018-03-30T04:45:29.698Z,4.00
2018-03-30T04:46:32.775Z,4.00
2018-03-30T04:47:29.693Z,4.00
2018-03-30T04:48:29.765Z,4.00
2018-03-30T04:49:29.755Z,4.00
2018-03-30T04:50:29.752Z,4.00
2018-03-30T04:51:29.752Z,4.00
2018-03-30T04:52:32.775Z,4.00
2018-03-30T04:53:29.785Z,4.00
2018-03-30T04:54:29.799Z,4.00
2018-03-30T04:55:29.819Z,4.00
2018-03-30T04:56:29.872Z,4.00
2018-03-30T04:57:33.816Z,4.00
2018-03-30T04:58:29.874Z,4.00
2018-03-30T04:59:29.883Z,4.00
2018-03-30T05:00:29.927Z,4.00
2018-03-30T05:01:29.922Z,4.00
2018-03-30T05:02:29.941Z,4.00
2018-03-30T05:03:33.954Z,4.00
2018-03-30T05:04:29.967Z,4.00
2018-03-30T05:05:29.982Z,4.00
2018-03-30T05:06:29.997Z,4.00
2018-03-30T05:07:30.015Z,4.00
2018-03-30T05:08:30.031Z,4.00
2018-03-30T05:09:33.952Z,4.00
2018-03-30T05:10:30.072Z,4.00
2018-03-30T05:11:30.088Z,4.00
2018-03-30T05:12:30.104Z,4.00
2018-03-30T05:13:30.123Z,4.00
2018-03-30T05:14:30.126Z,4.00
2018-03-30T05:15:34.050Z,4.00
2018-03-30T05:16:30.193Z,4.00
2018-03-30T05:17:30.186Z,4.00
2018-03-30T05:18:30.202Z,4.00
2018-03-30T05:19:30.217Z,4.00
2018-03-30T05:20:30.228Z,4.00
2018-03-30T05:21:34.047Z,4.00
2018-03-30T05:22:30.259Z,4.00
2018-03-30T05:23:30.274Z,4.00
2018-03-30T05:24:30.290Z,4.00
2018-03-30T05:25:30.305Z,4.00
2018-03-30T05:26:30.332Z,4.00
2018-03-30T05:27:34.096Z,4.00
2018-03-30T05:28:30.360Z,4.00
2018-03-30T05:29:30.367Z,4.00
2018-03-30T05:30:30.388Z,4.00
2018-03-30T05:31:30.410Z,4.00
2018-03-30T05:32:34.334Z,4.00
2018-03-30T05:33:30.465Z,4.00
2018-03-30T05:34:30.461Z,4.00
2018-03-30T05:35:30.466Z,4.00
2018-03-30T05:36:30.482Z,4.00
2018-03-30T05:37:30.496Z,4.00
2018-03-30T05:38:34.273Z,4.00
2018-03-30T05:39:30.572Z,4.00
2018-03-30T05:40:30.551Z,4.00
2018-03-30T05:41:30.563Z,4.00
2018-03-30T05:42:30.577Z,4.00
2018-03-30T05:43:30.595Z,4.00
2018-03-30T05:44:34.318Z,4.00
2018-03-30T05:45:30.629Z,4.00
2018-03-30T05:46:30.653Z,4.00
2018-03-30T05:47:30.671Z,4.00
2018-03-30T05:48:30.677Z,4.00
2018-03-30T05:49:30.700Z,4.00
2018-03-30T05:50:34.680Z,4.00
2018-03-30T05:51:30.738Z,4.00
2018-03-30T05:52:30.741Z,4.00
2018-03-30T05:53:30.757Z,4.00
2018-03-30T05:54:30.775Z,4.00
2018-03-30T05:55:30.791Z,4.00
2018-03-30T05:56:34.724Z,4.00
2018-03-30T05:57:30.827Z,0.00
2018-03-30T05:58:30.842Z,0.00
2018-03-30T05:59:30.859Z,0.00
2018-03-30T06:00:30.875Z,0.00
2018-03-30T06:01:30.888Z,4.00
2018-03-30T06:02:34.713Z,4.00
2018-03-30T06:03:30.933Z,4.00
2018-03-30T06:04:30.947Z,4.00
2018-03-30T06:05:30.950Z,4.00
2018-03-30T06:06:30.970Z,4.00
2018-03-30T06:07:31.000Z,8.00
2018-03-30T06:08:34.160Z,8.00
2018-03-30T06:09:31.031Z,4.00
2018-03-30T06:10:31.036Z,8.00
2018-03-30T06:11:31.060Z,8.00
2018-03-30T06:12:31.068Z,8.00
2018-03-30T06:13:31.081Z,12.00
2018-03-30T06:14:34.511Z,12.00
2018-03-30T06:15:31.128Z,16.00
2018-03-30T06:16:31.168Z,16.00
2018-03-30T06:17:31.150Z,20.00
2018-03-30T06:18:31.161Z,24.00
2018-03-30T06:19:31.182Z,32.00
2018-03-30T06:20:34.453Z,32.00
2018-03-30T06:21:31.222Z,40.00
2018-03-30T06:22:31.263Z,48.00
2018-03-30T06:23:31.245Z,52.00
2018-03-30T06:24:31.265Z,60.00
2018-03-30T06:25:31.285Z,68.00
2018-03-30T06:26:34.508Z,76.00
2018-03-30T06:27:31.311Z,84.00
2018-03-30T06:28:31.329Z,96.00
2018-03-30T06:29:31.341Z,104.00
2018-03-30T06:30:31.366Z,116.00
2018-03-30T06:31:31.381Z,124.00
2018-03-30T06:32:34.699Z,136.00
2018-03-30T06:33:31.417Z,148.00
2018-03-30T06:34:31.460Z,156.00
2018-03-30T06:35:31.453Z,168.00
2018-03-30T06:36:31.455Z,180.00
2018-03-30T06:37:31.473Z,188.00
2018-03-30T06:38:34.877Z,200.00
2018-03-30T06:39:31.514Z,212.00
2018-03-30T06:40:31.576Z,224.00
2018-03-30T06:41:31.535Z,236.00
2018-03-30T06:42:31.556Z,252.00
2018-03-30T06:43:31.567Z,264.00
2018-03-30T06:44:35.026Z,280.00
2018-03-30T06:45:31.600Z,292.00
2018-03-30T06:46:31.642Z,312.00
2018-03-30T06:47:31.634Z,324.00
2018-03-30T06:48:31.647Z,336.00
2018-03-30T06:49:31.674Z,352.00
2018-03-30T06:50:35.046Z,368.00
2018-03-30T06:51:31.699Z,384.00
2018-03-30T06:52:31.713Z,400.00
2018-03-30T06:53:31.741Z,424.00
2018-03-30T06:54:31.747Z,448.00
2018-03-30T06:55:31.764Z,460.00
2018-03-30T06:56:35.087Z,472.00
2018-03-30T06:57:31.795Z,484.00
2018-03-30T06:58:31.893Z,500.00
2018-03-30T06:59:31.826Z,524.00
2018-03-30T07:00:31.845Z,548.00
2018-03-30T07:01:31.861Z,576.00
2018-03-30T07:02:35.034Z,612.00
2018-03-30T07:03:31.902Z,668.00
2018-03-30T07:04:31.910Z,776.00
2018-03-30T07:05:31.925Z,828.00
2018-03-30T07:06:31.941Z,872.00
2018-03-30T07:07:31.971Z,908.00
2018-03-30T07:08:35.166Z,948.00
2018-03-30T07:09:31.991Z,988.00
2018-03-30T07:10:32.007Z,1024.00
2018-03-30T07:11:32.022Z,1064.00
2018-03-30T07:12:32.040Z,1108.00
2018-03-30T07:13:35.221Z,1156.00
2018-03-30T07:14:32.073Z,1208.00
2018-03-30T07:15:32.089Z,1260.00
2018-03-30T07:16:32.106Z,1312.00
2018-03-30T07:17:32.194Z,1384.00
2018-03-30T07:18:32.142Z,1480.00
2018-03-30T07:19:35.362Z,1584.00
2018-03-30T07:20:32.180Z,1700.00
2018-03-30T07:21:32.219Z,1864.00
2018-03-30T07:22:32.211Z,2172.00
2018-03-30T07:23:32.220Z,2736.00
2018-03-30T07:24:32.239Z,3192.00
2018-03-30T07:25:35.362Z,3228.00
2018-03-30T07:26:32.271Z,3120.00
2018-03-30T07:27:32.288Z,1512.00
2018-03-30T07:28:32.309Z,1004.00
2018-03-30T07:29:32.322Z,900.00
2018-03-30T07:30:32.341Z,800.00
2018-03-30T07:31:35.513Z,748.00
2018-03-30T07:32:32.385Z,740.00
2018-03-30T07:33:32.406Z,748.00
2018-03-30T07:34:32.416Z,756.00
2018-03-30T07:35:32.430Z,764.00
2018-03-30T07:36:32.444Z,792.00
2018-03-30T07:37:35.566Z,836.00
2018-03-30T07:38:32.478Z,896.00
2018-03-30T07:39:32.493Z,976.00
2018-03-30T07:40:32.513Z,1100.00
2018-03-30T07:41:32.526Z,2444.00
2018-03-30T07:42:36.552Z,1684.00
2018-03-30T07:43:32.559Z,1776.00
2018-03-30T07:44:32.577Z,1876.00
2018-03-30T07:45:32.612Z,4760.00
2018-03-30T07:46:32.610Z,4784.00
2018-03-30T07:47:32.640Z,4808.00
2018-03-30T07:48:35.867Z,4836.00
2018-03-30T07:49:32.670Z,4888.00
2018-03-30T07:50:32.681Z,4952.00
2018-03-30T07:51:32.698Z,3700.00
2018-03-30T07:52:32.727Z,3252.00
2018-03-30T07:53:32.731Z,5120.00
2018-03-30T07:54:35.890Z,5172.00
2018-03-30T07:55:32.774Z,5232.00
2018-03-30T07:56:32.796Z,5312.00
2018-03-30T07:57:32.810Z,5388.00
2018-03-30T07:58:32.818Z,5448.00
2018-03-30T07:59:32.867Z,5484.00
2018-03-30T08:00:35.961Z,5548.00
2018-03-30T08:01:32.885Z,5584.00
2018-03-30T08:02:32.898Z,5628.00
2018-03-30T08:03:32.986Z,5676.00
2018-03-30T08:04:32.940Z,5620.00
2018-03-30T08:05:32.950Z,5776.00
2018-03-30T08:06:36.986Z,5832.00
2018-03-30T08:07:32.988Z,5936.00
2018-03-30T08:08:33.015Z,5992.00
2018-03-30T08:09:33.027Z,6048.00
2018-03-30T08:10:33.045Z,6148.00
2018-03-30T08:11:33.061Z,6236.00
2018-03-30T08:12:37.048Z,6372.00
2018-03-30T08:13:33.116Z,6528.00
2018-03-30T08:14:33.127Z,6680.00
2018-03-30T08:15:33.140Z,6800.00
2018-03-30T08:16:33.171Z,6980.00
2018-03-30T08:17:33.177Z,7116.00
2018-03-30T08:18:36.302Z,7216.00
2018-03-30T08:19:33.311Z,7184.00
2018-03-30T08:20:33.246Z,7116.00
2018-03-30T08:21:33.257Z,7132.00
2018-03-30T08:22:33.315Z,6308.00
2018-03-30T08:23:33.295Z,7248.00
2018-03-30T08:24:37.321Z,7320.00
2018-03-30T08:25:33.406Z,7368.00
2018-03-30T08:26:33.358Z,7356.00
2018-03-30T08:27:33.377Z,7320.00
2018-03-30T08:28:33.397Z,7324.00
2018-03-30T08:29:33.415Z,7300.00
2018-03-30T08:30:37.396Z,7288.00
2018-03-30T08:31:33.477Z,7328.00
2018-03-30T08:32:33.475Z,7432.00
2018-03-30T08:33:33.503Z,7512.00
2018-03-30T08:34:33.538Z,7500.00
2018-03-30T08:35:33.586Z,7468.00
2018-03-30T08:36:37.563Z,7508.00
2018-03-30T08:37:33.577Z,7580.00
2018-03-30T08:38:33.596Z,7620.00
2018-03-30T08:39:33.619Z,7600.00
2018-03-30T08:40:33.638Z,7640.00
2018-03-30T08:41:33.665Z,7652.00
2018-03-30T08:42:37.594Z,7708.00
2018-03-30T08:43:33.708Z,7792.00
2018-03-30T08:44:33.722Z,7956.00
2018-03-30T08:45:33.739Z,8140.00
2018-03-30T08:46:33.758Z,8380.00
2018-03-30T08:47:33.788Z,8572.00
2018-03-30T08:48:37.817Z,8780.00
2018-03-30T08:49:33.824Z,3048.00
2018-03-30T08:50:33.877Z,8920.00
2018-03-30T08:51:33.860Z,6692.00
2018-03-30T08:52:33.881Z,3176.00
2018-03-30T08:53:33.903Z,4588.00
2018-03-30T08:54:37.333Z,3784.00
2018-03-30T08:55:33.955Z,4552.00
2018-03-30T08:56:34.011Z,9988.00
2018-03-30T08:57:33.983Z,8088.00
2018-03-30T08:58:34.005Z,3024.00
2018-03-30T08:59:34.027Z,2416.00
2018-03-30T09:00:37.612Z,2428.00
2018-03-30T09:01:34.068Z,2364.00
2018-03-30T09:02:34.144Z,2260.00
2018-03-30T09:03:34.105Z,2228.00
2018-03-30T09:04:34.126Z,2296.00
2018-03-30T09:05:34.146Z,2456.00
2018-03-30T09:06:37.622Z,2524.00
2018-03-30T09:07:34.186Z,2440.00
2018-03-30T09:08:34.237Z,2580.00
2018-03-30T09:09:34.243Z,2480.00
2018-03-30T09:10:34.243Z,2544.00
2018-03-30T09:11:34.265Z,2900.00
2018-03-30T09:12:37.691Z,10344.00
2018-03-30T09:13:34.300Z,10436.00
2018-03-30T09:14:34.322Z,10664.00
2018-03-30T09:15:34.416Z,10840.00
2018-03-30T09:16:34.361Z,11132.00
2018-03-30T09:17:34.378Z,11376.00
2018-03-30T09:18:38.055Z,11308.00
2018-03-30T09:19:34.426Z,10744.00
2018-03-30T09:20:34.434Z,6476.00
2018-03-30T09:21:34.456Z,2744.00
2018-03-30T09:22:34.476Z,2500.00
2018-03-30T09:23:34.503Z,2324.00
2018-03-30T09:24:38.132Z,2172.00
2018-03-30T09:25:34.532Z,2084.00
2018-03-30T09:26:34.550Z,2080.00
2018-03-30T09:27:34.575Z,2268.00
2018-03-30T09:28:34.656Z,2664.00
2018-03-30T09:29:34.610Z,3188.00
2018-03-30T09:30:38.141Z,4604.00
2018-03-30T09:31:34.652Z,10236.00
2018-03-30T09:32:34.688Z,5132.00
2018-03-30T09:33:34.684Z,2688.00
2018-03-30T09:34:34.703Z,2608.00
2018-03-30T09:35:38.480Z,2848.00
2018-03-30T09:36:34.743Z,10816.00
2018-03-30T09:37:34.758Z,6836.00
2018-03-30T09:38:34.789Z,2668.00
2018-03-30T09:39:34.798Z,2916.00
2018-03-30T09:40:34.822Z,7020.00
2018-03-30T09:41:37.892Z,5276.00
2018-03-30T09:42:34.856Z,11756.00
2018-03-30T09:43:34.875Z,11728.00
2018-03-30T09:44:34.890Z,4036.00
2018-03-30T09:45:34.919Z,3512.00
2018-03-30T09:46:34.990Z,3344.00
2018-03-30T09:47:34.950Z,3256.00
2018-03-30T09:48:34.976Z,3444.00
2018-03-30T09:49:34.991Z,3908.00
2018-03-30T09:50:35.010Z,4720.00
2018-03-30T09:51:35.036Z,5940.00
2018-03-30T09:52:35.048Z,12320.00
2018-03-30T09:53:35.138Z,3328.00
2018-03-30T09:54:35.092Z,3028.00
2018-03-30T09:55:35.104Z,3060.00
2018-03-30T09:56:35.120Z,3236.00
2018-03-30T09:57:35.152Z,3448.00
2018-03-30T09:58:35.160Z,3592.00
2018-03-30T09:59:35.194Z,3796.00
2018-03-30T10:00:35.198Z,3924.00
2018-03-30T10:01:35.217Z,4136.00
2018-03-30T10:02:35.246Z,11740.00
2018-03-30T10:03:35.257Z,3576.00
2018-03-30T10:04:35.278Z,3596.00
2018-03-30T10:05:35.324Z,3492.00
2018-03-30T10:06:35.314Z,3376.00
2018-03-30T10:07:35.329Z,3180.00
2018-03-30T10:08:35.347Z,3044.00
2018-03-30T10:09:35.377Z,3152.00
2018-03-30T10:10:35.399Z,3416.00
2018-03-30T10:11:35.418Z,12736.00
2018-03-30T10:12:35.422Z,13224.00
2018-03-30T10:13:35.454Z,9380.00
2018-03-30T10:14:35.474Z,13520.00
2018-03-30T10:15:35.491Z,12928.00
2018-03-30T10:16:35.512Z,4616.00
2018-03-30T10:17:35.521Z,4648.00
2018-03-30T10:18:35.539Z,7300.00
2018-03-30T10:19:35.574Z,15072.00
2018-03-30T10:20:35.578Z,8384.00
2018-03-30T10:21:35.611Z,5596.00
2018-03-30T10:22:35.619Z,5180.00
2018-03-30T10:23:35.634Z,5056.00
2018-03-30T10:24:35.658Z,5944.00
2018-03-30T10:25:35.677Z,13676.00
2018-03-30T10:26:35.699Z,13984.00
2018-03-30T10:27:35.715Z,5812.00
2018-03-30T10:28:35.744Z,13220.00
2018-03-30T10:29:35.766Z,12968.00
2018-03-30T10:30:35.831Z,12868.00
2018-03-30T10:31:35.794Z,12548.00
2018-03-30T10:32:35.812Z,12696.00
2018-03-30T10:33:35.836Z,13296.00
2018-03-30T10:34:35.853Z,14144.00
2018-03-30T10:36:35.943Z,15200.00
2018-03-30T10:37:35.912Z,14880.00
2018-03-30T10:38:35.935Z,4788.00
2018-03-30T10:39:35.952Z,4136.00
2018-03-30T10:40:35.969Z,3628.00
2018-03-30T10:41:35.989Z,3492.00
2018-03-30T10:42:36.059Z,3660.00
2018-03-30T10:43:36.068Z,4656.00
2018-03-30T10:44:36.061Z,13616.00
2018-03-30T10:45:36.082Z,4680.00
2018-03-30T10:46:36.095Z,14176.00
2018-03-30T10:47:36.109Z,14304.00
2018-03-30T10:48:36.140Z,14656.00
2018-03-30T10:49:36.150Z,13248.00
2018-03-30T10:50:36.171Z,5012.00
2018-03-30T10:51:36.191Z,5928.00
2018-03-30T10:52:36.212Z,12272.00
2018-03-30T10:53:36.233Z,14336.00
2018-03-30T10:54:36.254Z,13156.00
2018-03-30T10:55:36.271Z,14112.00
2018-03-30T10:56:36.291Z,14304.00
2018-03-30T10:57:36.311Z,4492.00
2018-03-30T10:58:36.330Z,13952.00
2018-03-30T10:59:36.359Z,5420.00
2018-03-30T11:00:36.402Z,14624.00
2018-03-30T11:01:36.393Z,15104.00
2018-03-30T11:02:36.420Z,15008.00
2018-03-30T11:03:36.432Z,6636.00
2018-03-30T11:04:36.451Z,4464.00
2018-03-30T11:05:36.482Z,3980.00
2018-03-30T11:06:36.499Z,6764.00
2018-03-30T11:07:36.574Z,6348.00
2018-03-30T11:08:36.534Z,3708.00
2018-03-30T11:09:36.553Z,3900.00
2018-03-30T11:10:36.578Z,4496.00
2018-03-30T11:11:36.658Z,4408.00
2018-03-30T11:12:36.622Z,14336.00
2018-03-30T11:13:36.654Z,3640.00
2018-03-30T11:14:36.653Z,3572.00
2018-03-30T11:15:36.670Z,3940.00
2018-03-30T11:16:36.694Z,3964.00
2018-03-30T11:17:36.711Z,4384.00
2018-03-30T11:18:36.731Z,4000.00
2018-03-30T11:19:36.749Z,3776.00
2018-03-30T11:20:36.777Z,3568.00
2018-03-30T11:21:36.788Z,3428.00
2018-03-30T11:22:36.810Z,4012.00
2018-03-30T11:23:36.837Z,10828.00
2018-03-30T11:24:36.901Z,4028.00
2018-03-30T11:25:36.865Z,3808.00
2018-03-30T11:26:36.895Z,3792.00
2018-03-30T11:27:36.907Z,3920.00
2018-03-30T11:28:36.927Z,4004.00
2018-03-30T11:29:36.943Z,4556.00
2018-03-30T11:30:36.962Z,4704.00
2018-03-30T11:31:36.994Z,4144.00
2018-03-30T11:32:37.012Z,3808.00
2018-03-30T11:33:37.017Z,4164.00
2018-03-30T11:34:37.038Z,4920.00
2018-03-30T11:35:37.065Z,4492.00
2018-03-30T11:36:37.074Z,4176.00
2018-03-30T11:37:37.094Z,4396.00
2018-03-30T11:38:37.116Z,4680.00
2018-03-30T11:39:37.135Z,4520.00
2018-03-30T11:40:37.154Z,4864.00
2018-03-30T11:41:37.171Z,4972.00
2018-03-30T11:42:37.193Z,4100.00
2018-03-30T11:43:37.211Z,3804.00
2018-03-30T11:44:37.246Z,3584.00
2018-03-30T11:45:37.249Z,3704.00
2018-03-30T11:46:37.265Z,4660.00
2018-03-30T11:47:37.286Z,15808.00
2018-03-30T11:48:37.308Z,6652.00
2018-03-30T11:49:37.322Z,9692.00
2018-03-30T11:50:37.345Z,7092.00
2018-03-30T11:51:37.371Z,6132.00
2018-03-30T11:52:37.380Z,5236.00
2018-03-30T11:53:37.400Z,4356.00
2018-03-30T11:54:37.478Z,3608.00
2018-03-30T11:55:37.440Z,2992.00
2018-03-30T11:56:37.467Z,2468.00
2018-03-30T11:57:37.476Z,2256.00
2018-03-30T11:58:37.500Z,2456.00
2018-03-30T11:59:37.521Z,2768.00
2018-03-30T12:00:37.531Z,3132.00
2018-03-30T12:01:37.549Z,3444.00
2018-03-30T12:02:37.570Z,3492.00
2018-03-30T12:03:37.590Z,3448.00
2018-03-30T12:04:37.609Z,3588.00
2018-03-30T12:05:37.628Z,3772.00
2018-03-30T12:06:37.645Z,4212.00
2018-03-30T12:07:37.670Z,5660.00
2018-03-30T12:08:37.753Z,6268.00
2018-03-30T12:09:37.699Z,5152.00
2018-03-30T12:10:37.724Z,5572.00
2018-03-30T12:11:37.732Z,4532.00
2018-03-30T12:12:37.752Z,4160.00
2018-03-30T12:13:37.770Z,4092.00
2018-03-30T12:14:37.786Z,3988.00
2018-03-30T12:15:37.813Z,5016.00
2018-03-30T12:16:37.829Z,10324.00
2018-03-30T12:17:37.849Z,11324.00
2018-03-30T12:18:37.867Z,3116.00
2018-03-30T12:19:37.879Z,11420.00
2018-03-30T12:20:37.898Z,11468.00
2018-03-30T12:21:37.924Z,11304.00
2018-03-30T12:22:37.944Z,9564.00
2018-03-30T12:23:37.952Z,11644.00
2018-03-30T12:24:37.978Z,11688.00
2018-03-30T12:25:37.989Z,10956.00
2018-03-30T12:26:38.010Z,7180.00
2018-03-30T12:27:38.039Z,6412.00
2018-03-30T12:28:38.049Z,9732.00
2018-03-30T12:29:38.066Z,6824.00
2018-03-30T12:30:38.089Z,6444.00
2018-03-30T12:31:38.150Z,6788.00
2018-03-30T12:32:38.191Z,13856.00
2018-03-30T12:33:38.154Z,13100.00
2018-03-30T12:34:38.166Z,13132.00
2018-03-30T12:35:38.182Z,12548.00
2018-03-30T12:36:38.203Z,12264.00
2018-03-30T12:37:38.224Z,12168.00
2018-03-30T12:38:38.260Z,11944.00
2018-03-30T12:39:38.262Z,12504.00
2018-03-30T12:40:38.291Z,12856.00
2018-03-30T12:41:38.304Z,12560.00
2018-03-30T12:42:38.320Z,12304.00